sensor_id;sensor_type;location;lat;lon;timestamp;P1;durP1;ratioP1;P2;durP2;ratioP2
67274;SDS011;55463;52.324;5.122;2022-07-21T00:02:24;5.80;;;4.90;;
67274;SDS011;55463;52.324;5.122;2022-07-21T00:04:50;6.72;;;5.30;;
67274;SDS011;55463;52.324;5.122;2022-07-21T00:07:15;7.13;;;5.25;;
67274;SDS011;55463;52.324;5.122;2022-07-21T00:09:41;6.00;;;5.20;;
67274;SDS011;55463;52.324;5.122;2022-07-21T00:12:06;6.85;;;5.10;;
67274;SDS011;55463;52.324;5.122;2022-07-21T00:14:32;10.10;;;6.10;;
67274;SDS011;55463;52.324;5.122;2022-07-21T00:16:57;8.75;;;6.00;;
67274;SDS011;55463;52.324;5.122;2022-07-21T00:19:23;7.05;;;5.75;;
67274;SDS011;55463;52.324;5.122;2022-07-21T00:21:48;9.50;;;6.20;;
67274;SDS011;55463;52.324;5.122;2022-07-21T00:24:14;7.13;;;5.93;;
67274;SDS011;55463;52.324;5.122;2022-07-21T00:26:39;6.45;;;5.85;;
67274;SDS011;55463;52.324;5.122;2022-07-21T00:29:05;9.65;;;6.30;;
67274;SDS011;55463;52.324;5.122;2022-07-21T00:31:30;9.25;;;6.28;;
67274;SDS011;55463;52.324;5.122;2022-07-21T00:33:55;9.38;;;6.15;;
67274;SDS011;55463;52.324;5.122;2022-07-21T00:36:21;10.55;;;6.68;;
67274;SDS011;55463;52.324;5.122;2022-07-21T00:38:46;9.38;;;7.05;;
67274;SDS011;55463;52.324;5.122;2022-07-21T00:41:13;10.07;;;7.72;;
67274;SDS011;55463;52.324;5.122;2022-07-21T00:43:38;10.02;;;7.18;;
67274;SDS011;55463;52.324;5.122;2022-07-21T00:46:04;8.35;;;7.45;;
67274;SDS011;55463;52.324;5.122;2022-07-21T00:48:29;9.55;;;7.63;;
67274;SDS011;55463;52.324;5.122;2022-07-21T00:50:55;10.77;;;7.90;;
67274;SDS011;55463;52.324;5.122;2022-07-21T00:53:20;10.55;;;7.80;;
67274;SDS011;55463;52.324;5.122;2022-07-21T00:55:46;11.00;;;7.13;;
67274;SDS011;55463;52.324;5.122;2022-07-21T00:58:12;10.50;;;7.88;;
67274;SDS011;55463;52.324;5.122;2022-07-21T01:00:38;9.18;;;7.57;;
67274;SDS011;55463;52.324;5.122;2022-07-21T01:03:04;11.90;;;8.70;;
67274;SDS011;55463;52.324;5.122;2022-07-21T01:05:30;12.68;;;8.88;;
67274;SDS011;55463;52.324;5.122;2022-07-21T01:07:58;10.57;;;8.57;;
67274;SDS011;55463;52.324;5.122;2022-07-21T01:10:27;12.00;;;8.27;;
67274;SDS011;55463;52.324;5.122;2022-07-21T01:12:54;13.77;;;8.95;;
67274;SDS011;55463;52.324;5.122;2022-07-21T01:15:19;10.85;;;9.25;;
67274;SDS011;55463;52.324;5.122;2022-07-21T01:17:46;12.65;;;9.63;;
67274;SDS011;55463;52.324;5.122;2022-07-21T01:20:17;14.68;;;10.32;;
67274;SDS011;55463;52.324;5.122;2022-07-21T01:22:45;12.68;;;9.93;;
67274;SDS011;55463;52.324;5.122;2022-07-21T01:25:13;13.85;;;9.90;;
67274;SDS011;55463;52.324;5.122;2022-07-21T01:27:39;12.85;;;10.68;;
67274;SDS011;55463;52.324;5.122;2022-07-21T01:30:05;15.77;;;11.25;;
67274;SDS011;55463;52.324;5.122;2022-07-21T01:32:35;13.73;;;10.80;;
67274;SDS011;55463;52.324;5.122;2022-07-21T01:35:02;14.13;;;10.93;;
67274;SDS011;55463;52.324;5.122;2022-07-21T01:37:29;14.80;;;11.13;;
67274;SDS011;55463;52.324;5.122;2022-07-21T01:39:56;13.68;;;11.48;;
67274;SDS011;55463;52.324;5.122;2022-07-21T01:42:40;14.60;;;11.02;;
67274;SDS011;55463;52.324;5.122;2022-07-21T01:45:05;16.48;;;11.88;;
67274;SDS011;55463;52.324;5.122;2022-07-21T01:47:31;18.13;;;11.82;;
67274;SDS011;55463;52.324;5.122;2022-07-21T01:49:57;16.65;;;12.18;;
67274;SDS011;55463;52.324;5.122;2022-07-21T01:52:22;22.65;;;13.10;;
67274;SDS011;55463;52.324;5.122;2022-07-21T01:54:48;18.52;;;12.63;;
67274;SDS011;55463;52.324;5.122;2022-07-21T01:57:14;19.98;;;12.35;;
67274;SDS011;55463;52.324;5.122;2022-07-21T01:59:40;19.83;;;13.15;;
67274;SDS011;55463;52.324;5.122;2022-07-21T02:02:05;22.58;;;13.95;;
67274;SDS011;55463;52.324;5.122;2022-07-21T02:04:30;19.65;;;14.02;;
67274;SDS011;55463;52.324;5.122;2022-07-21T02:06:56;22.20;;;14.25;;
67274;SDS011;55463;52.324;5.122;2022-07-21T02:09:21;16.65;;;14.05;;
67274;SDS011;55463;52.324;5.122;2022-07-21T02:11:46;16.30;;;12.63;;
67274;SDS011;55463;52.324;5.122;2022-07-21T02:14:12;19.33;;;13.65;;
67274;SDS011;55463;52.324;5.122;2022-07-21T02:16:37;18.75;;;14.60;;
67274;SDS011;55463;52.324;5.122;2022-07-21T02:19:03;19.23;;;14.48;;
67274;SDS011;55463;52.324;5.122;2022-07-21T02:21:29;21.50;;;14.35;;
67274;SDS011;55463;52.324;5.122;2022-07-21T02:23:54;18.77;;;14.40;;
67274;SDS011;55463;52.324;5.122;2022-07-21T02:26:20;21.83;;;14.98;;
67274;SDS011;55463;52.324;5.122;2022-07-21T02:28:45;21.63;;;15.15;;
67274;SDS011;55463;52.324;5.122;2022-07-21T02:31:11;20.73;;;14.00;;
67274;SDS011;55463;52.324;5.122;2022-07-21T02:33:36;21.98;;;14.68;;
67274;SDS011;55463;52.324;5.122;2022-07-21T02:36:02;19.45;;;14.95;;
67274;SDS011;55463;52.324;5.122;2022-07-21T02:38:27;18.40;;;14.10;;
67274;SDS011;55463;52.324;5.122;2022-07-21T02:40:53;23.55;;;15.18;;
67274;SDS011;55463;52.324;5.122;2022-07-21T02:43:18;20.48;;;15.00;;
67274;SDS011;55463;52.324;5.122;2022-07-21T02:45:44;19.88;;;15.05;;
67274;SDS011;55463;52.324;5.122;2022-07-21T02:48:10;21.42;;;15.40;;
67274;SDS011;55463;52.324;5.122;2022-07-21T02:50:38;21.65;;;15.88;;
67274;SDS011;55463;52.324;5.122;2022-07-21T02:53:07;19.92;;;15.43;;
67274;SDS011;55463;52.324;5.122;2022-07-21T02:55:37;18.88;;;14.50;;
67274;SDS011;55463;52.324;5.122;2022-07-21T02:58:06;20.38;;;15.25;;
67274;SDS011;55463;52.324;5.122;2022-07-21T03:00:50;21.52;;;15.40;;
67274;SDS011;55463;52.324;5.122;2022-07-21T03:03:16;19.98;;;16.10;;
67274;SDS011;55463;52.324;5.122;2022-07-21T03:05:41;20.08;;;15.30;;
67274;SDS011;55463;52.324;5.122;2022-07-21T03:08:07;24.67;;;16.25;;
67274;SDS011;55463;52.324;5.122;2022-07-21T03:10:34;22.73;;;15.52;;
67274;SDS011;55463;52.324;5.122;2022-07-21T03:13:00;19.35;;;15.75;;
67274;SDS011;55463;52.324;5.122;2022-07-21T03:15:25;20.55;;;16.50;;
67274;SDS011;55463;52.324;5.122;2022-07-21T03:17:54;26.55;;;16.35;;
67274;SDS011;55463;52.324;5.122;2022-07-21T03:20:28;28.45;;;17.08;;
67274;SDS011;55463;52.324;5.122;2022-07-21T03:22:55;21.50;;;16.30;;
67274;SDS011;55463;52.324;5.122;2022-07-21T03:25:21;24.02;;;17.40;;
67274;SDS011;55463;52.324;5.122;2022-07-21T03:27:47;22.00;;;16.70;;
67274;SDS011;55463;52.324;5.122;2022-07-21T03:30:13;24.75;;;17.55;;
67274;SDS011;55463;52.324;5.122;2022-07-21T03:32:39;21.92;;;17.02;;
67274;SDS011;55463;52.324;5.122;2022-07-21T03:35:05;23.83;;;17.17;;
67274;SDS011;55463;52.324;5.122;2022-07-21T03:37:32;23.67;;;17.67;;
67274;SDS011;55463;52.324;5.122;2022-07-21T03:39:57;24.58;;;16.55;;
67274;SDS011;55463;52.324;5.122;2022-07-21T03:42:23;22.35;;;17.95;;
67274;SDS011;55463;52.324;5.122;2022-07-21T03:44:48;25.45;;;17.80;;
67274;SDS011;55463;52.324;5.122;2022-07-21T03:47:14;27.42;;;18.02;;
67274;SDS011;55463;52.324;5.122;2022-07-21T03:49:39;31.02;;;17.73;;
67274;SDS011;55463;52.324;5.122;2022-07-21T03:52:04;25.77;;;18.58;;
67274;SDS011;55463;52.324;5.122;2022-07-21T03:54:30;27.10;;;18.45;;
67274;SDS011;55463;52.324;5.122;2022-07-21T03:56:55;25.63;;;18.70;;
67274;SDS011;55463;52.324;5.122;2022-07-21T03:59:20;27.13;;;19.05;;
67274;SDS011;55463;52.324;5.122;2022-07-21T04:01:46;30.95;;;18.25;;
67274;SDS011;55463;52.324;5.122;2022-07-21T04:04:11;31.80;;;19.77;;
67274;SDS011;55463;52.324;5.122;2022-07-21T04:06:36;26.00;;;18.65;;
67274;SDS011;55463;52.324;5.122;2022-07-21T04:09:02;30.42;;;20.13;;
67274;SDS011;55463;52.324;5.122;2022-07-21T04:11:28;27.33;;;19.27;;
67274;SDS011;55463;52.324;5.122;2022-07-21T04:13:55;25.77;;;19.52;;
67274;SDS011;55463;52.324;5.122;2022-07-21T04:16:20;31.13;;;19.58;;
67274;SDS011;55463;52.324;5.122;2022-07-21T04:18:46;29.00;;;19.02;;
67274;SDS011;55463;52.324;5.122;2022-07-21T04:21:11;27.10;;;18.42;;
67274;SDS011;55463;52.324;5.122;2022-07-21T04:23:36;26.17;;;18.90;;
67274;SDS011;55463;52.324;5.122;2022-07-21T04:26:02;27.25;;;19.63;;
67274;SDS011;55463;52.324;5.122;2022-07-21T04:28:27;30.98;;;18.98;;
67274;SDS011;55463;52.324;5.122;2022-07-21T04:30:53;35.03;;;19.00;;
67274;SDS011;55463;52.324;5.122;2022-07-21T04:33:18;30.27;;;19.08;;
67274;SDS011;55463;52.324;5.122;2022-07-21T04:35:43;25.60;;;18.75;;
67274;SDS011;55463;52.324;5.122;2022-07-21T04:38:09;25.00;;;18.00;;
67274;SDS011;55463;52.324;5.122;2022-07-21T04:40:35;28.55;;;19.10;;
67274;SDS011;55463;52.324;5.122;2022-07-21T04:43:01;25.85;;;18.70;;
67274;SDS011;55463;52.324;5.122;2022-07-21T04:45:27;25.85;;;18.80;;
67274;SDS011;55463;52.324;5.122;2022-07-21T04:47:53;28.92;;;19.30;;
67274;SDS011;55463;52.324;5.122;2022-07-21T04:50:20;27.20;;;19.02;;
67274;SDS011;55463;52.324;5.122;2022-07-21T04:52:49;27.15;;;18.63;;
67274;SDS011;55463;52.324;5.122;2022-07-21T04:55:15;30.20;;;19.67;;
67274;SDS011;55463;52.324;5.122;2022-07-21T04:57:44;27.08;;;19.65;;
67274;SDS011;55463;52.324;5.122;2022-07-21T05:00:13;24.70;;;19.75;;
67274;SDS011;55463;52.324;5.122;2022-07-21T05:02:40;28.80;;;19.95;;
67274;SDS011;55463;52.324;5.122;2022-07-21T05:05:06;30.05;;;20.95;;
67274;SDS011;55463;52.324;5.122;2022-07-21T05:07:32;30.90;;;21.25;;
67274;SDS011;55463;52.324;5.122;2022-07-21T05:09:57;28.05;;;19.52;;
67274;SDS011;55463;52.324;5.122;2022-07-21T05:12:24;33.42;;;19.73;;
67274;SDS011;55463;52.324;5.122;2022-07-21T05:14:52;27.88;;;19.52;;
67274;SDS011;55463;52.324;5.122;2022-07-21T05:17:17;29.65;;;19.10;;
67274;SDS011;55463;52.324;5.122;2022-07-21T05:19:43;28.83;;;19.98;;
67274;SDS011;55463;52.324;5.122;2022-07-21T05:22:10;25.88;;;18.98;;
67274;SDS011;55463;52.324;5.122;2022-07-21T05:24:36;31.92;;;19.33;;
67274;SDS011;55463;52.324;5.122;2022-07-21T05:27:01;27.48;;;19.63;;
67274;SDS011;55463;52.324;5.122;2022-07-21T05:29:26;32.47;;;20.20;;
67274;SDS011;55463;52.324;5.122;2022-07-21T05:31:52;28.73;;;20.15;;
67274;SDS011;55463;52.324;5.122;2022-07-21T05:34:17;29.23;;;20.08;;
67274;SDS011;55463;52.324;5.122;2022-07-21T05:36:42;29.25;;;20.35;;
67274;SDS011;55463;52.324;5.122;2022-07-21T05:39:08;31.13;;;20.85;;
67274;SDS011;55463;52.324;5.122;2022-07-21T05:41:34;30.70;;;20.42;;
67274;SDS011;55463;52.324;5.122;2022-07-21T05:43:59;36.88;;;20.95;;
67274;SDS011;55463;52.324;5.122;2022-07-21T05:46:24;32.28;;;21.60;;
67274;SDS011;55463;52.324;5.122;2022-07-21T05:48:50;29.95;;;21.40;;
67274;SDS011;55463;52.324;5.122;2022-07-21T05:51:15;33.20;;;21.63;;
67274;SDS011;55463;52.324;5.122;2022-07-21T05:53:40;35.70;;;22.00;;
67274;SDS011;55463;52.324;5.122;2022-07-21T05:56:06;32.15;;;21.00;;
67274;SDS011;55463;52.324;5.122;2022-07-21T05:58:32;29.60;;;21.38;;
67274;SDS011;55463;52.324;5.122;2022-07-21T06:00:58;30.95;;;22.13;;
67274;SDS011;55463;52.324;5.122;2022-07-21T06:03:33;31.85;;;21.60;;
67274;SDS011;55463;52.324;5.122;2022-07-21T06:06:03;31.05;;;21.63;;
67274;SDS011;55463;52.324;5.122;2022-07-21T06:08:28;29.60;;;20.02;;
67274;SDS011;55463;52.324;5.122;2022-07-21T06:10:54;34.33;;;20.92;;
67274;SDS011;55463;52.324;5.122;2022-07-21T06:13:19;30.60;;;21.33;;
67274;SDS011;55463;52.324;5.122;2022-07-21T06:15:45;47.05;;;21.90;;
67274;SDS011;55463;52.324;5.122;2022-07-21T06:18:10;36.22;;;23.52;;
67274;SDS011;55463;52.324;5.122;2022-07-21T06:20:36;36.67;;;23.60;;
67274;SDS011;55463;52.324;5.122;2022-07-21T06:23:01;33.53;;;22.80;;
67274;SDS011;55463;52.324;5.122;2022-07-21T06:25:26;35.33;;;24.15;;
67274;SDS011;55463;52.324;5.122;2022-07-21T06:27:52;32.53;;;23.10;;
67274;SDS011;55463;52.324;5.122;2022-07-21T06:30:17;34.63;;;22.67;;
67274;SDS011;55463;52.324;5.122;2022-07-21T06:32:42;37.92;;;24.45;;
67274;SDS011;55463;52.324;5.122;2022-07-21T06:35:08;36.58;;;24.15;;
67274;SDS011;55463;52.324;5.122;2022-07-21T06:37:34;40.38;;;24.23;;
67274;SDS011;55463;52.324;5.122;2022-07-21T06:39:59;37.92;;;24.73;;
67274;SDS011;55463;52.324;5.122;2022-07-21T06:42:25;39.33;;;25.10;;
67274;SDS011;55463;52.324;5.122;2022-07-21T06:44:50;41.10;;;26.48;;
67274;SDS011;55463;52.324;5.122;2022-07-21T06:47:16;38.33;;;25.13;;
67274;SDS011;55463;52.324;5.122;2022-07-21T06:49:41;41.03;;;26.77;;
67274;SDS011;55463;52.324;5.122;2022-07-21T06:52:06;50.95;;;29.17;;
67274;SDS011;55463;52.324;5.122;2022-07-21T06:54:32;50.60;;;28.15;;
67274;SDS011;55463;52.324;5.122;2022-07-21T06:56:57;51.00;;;29.05;;
67274;SDS011;55463;52.324;5.122;2022-07-21T06:59:23;50.30;;;29.70;;
67274;SDS011;55463;52.324;5.122;2022-07-21T07:01:48;50.88;;;29.50;;
67274;SDS011;55463;52.324;5.122;2022-07-21T07:04:13;56.83;;;30.83;;
67274;SDS011;55463;52.324;5.122;2022-07-21T07:06:39;47.65;;;27.52;;
67274;SDS011;55463;52.324;5.122;2022-07-21T07:09:04;52.67;;;28.70;;
67274;SDS011;55463;52.324;5.122;2022-07-21T07:11:30;51.88;;;28.25;;
67274;SDS011;55463;52.324;5.122;2022-07-21T07:13:55;48.45;;;28.25;;
67274;SDS011;55463;52.324;5.122;2022-07-21T07:16:21;49.05;;;27.75;;
67274;SDS011;55463;52.324;5.122;2022-07-21T07:18:46;51.83;;;27.73;;
67274;SDS011;55463;52.324;5.122;2022-07-21T07:21:12;50.22;;;28.75;;
67274;SDS011;55463;52.324;5.122;2022-07-21T07:23:38;51.38;;;27.88;;
67274;SDS011;55463;52.324;5.122;2022-07-21T07:26:04;66.65;;;29.85;;
67274;SDS011;55463;52.324;5.122;2022-07-21T07:28:29;58.65;;;28.80;;
67274;SDS011;55463;52.324;5.122;2022-07-21T07:30:54;51.97;;;27.48;;
67274;SDS011;55463;52.324;5.122;2022-07-21T07:33:20;54.58;;;27.88;;
67274;SDS011;55463;52.324;5.122;2022-07-21T07:35:46;57.65;;;28.35;;
67274;SDS011;55463;52.324;5.122;2022-07-21T07:38:13;55.22;;;29.60;;
67274;SDS011;55463;52.324;5.122;2022-07-21T07:40:39;55.83;;;28.83;;
67274;SDS011;55463;52.324;5.122;2022-07-21T07:43:05;55.70;;;29.85;;
67274;SDS011;55463;52.324;5.122;2022-07-21T07:45:31;53.42;;;28.70;;
67274;SDS011;55463;52.324;5.122;2022-07-21T07:47:56;62.35;;;30.00;;
67274;SDS011;55463;52.324;5.122;2022-07-21T07:50:22;55.15;;;28.15;;
67274;SDS011;55463;52.324;5.122;2022-07-21T07:52:47;52.45;;;29.23;;
67274;SDS011;55463;52.324;5.122;2022-07-21T07:55:13;54.65;;;29.05;;
67274;SDS011;55463;52.324;5.122;2022-07-21T07:57:39;57.03;;;30.73;;
67274;SDS011;55463;52.324;5.122;2022-07-21T08:00:07;59.08;;;31.77;;
67274;SDS011;55463;52.324;5.122;2022-07-21T08:02:34;63.65;;;31.15;;
67274;SDS011;55463;52.324;5.122;2022-07-21T08:05:00;75.18;;;32.00;;
67274;SDS011;55463;52.324;5.122;2022-07-21T08:07:26;78.45;;;34.53;;
67274;SDS011;55463;52.324;5.122;2022-07-21T08:09:51;77.05;;;36.55;;
67274;SDS011;55463;52.324;5.122;2022-07-21T08:12:16;78.97;;;35.20;;
67274;SDS011;55463;52.324;5.122;2022-07-21T08:14:42;68.05;;;36.17;;
67274;SDS011;55463;52.324;5.122;2022-07-21T08:17:07;71.82;;;36.50;;
67274;SDS011;55463;52.324;5.122;2022-07-21T08:19:33;77.57;;;35.88;;
67274;SDS011;55463;52.324;5.122;2022-07-21T08:21:58;77.30;;;38.70;;
67274;SDS011;55463;52.324;5.122;2022-07-21T08:24:23;88.30;;;37.95;;
67274;SDS011;55463;52.324;5.122;2022-07-21T08:26:49;67.18;;;30.73;;
67274;SDS011;55463;52.324;5.122;2022-07-21T08:29:17;52.70;;;25.17;;
67274;SDS011;55463;52.324;5.122;2022-07-21T08:31:42;39.92;;;23.30;;
67274;SDS011;55463;52.324;5.122;2022-07-21T08:34:08;40.00;;;20.67;;
67274;SDS011;55463;52.324;5.122;2022-07-21T08:36:33;35.80;;;19.95;;
67274;SDS011;55463;52.324;5.122;2022-07-21T08:38:58;34.00;;;18.70;;
67274;SDS011;55463;52.324;5.122;2022-07-21T08:41:24;31.63;;;16.88;;
67274;SDS011;55463;52.324;5.122;2022-07-21T08:43:50;29.83;;;17.08;;
67274;SDS011;55463;52.324;5.122;2022-07-21T08:46:15;31.05;;;18.10;;
67274;SDS011;55463;52.324;5.122;2022-07-21T08:48:41;33.28;;;17.60;;
67274;SDS011;55463;52.324;5.122;2022-07-21T08:51:07;32.05;;;17.45;;
67274;SDS011;55463;52.324;5.122;2022-07-21T08:53:33;29.25;;;16.70;;
67274;SDS011;55463;52.324;5.122;2022-07-21T08:55:58;26.52;;;16.55;;
67274;SDS011;55463;52.324;5.122;2022-07-21T08:58:24;24.98;;;16.10;;
67274;SDS011;55463;52.324;5.122;2022-07-21T09:00:50;27.55;;;16.50;;
67274;SDS011;55463;52.324;5.122;2022-07-21T09:03:23;20.35;;;13.90;;
67274;SDS011;55463;52.324;5.122;2022-07-21T09:06:03;22.17;;;14.63;;
67274;SDS011;55463;52.324;5.122;2022-07-21T09:08:36;25.92;;;13.73;;
67274;SDS011;55463;52.324;5.122;2022-07-21T09:13:35;21.15;;;12.52;;
67274;SDS011;55463;52.324;5.122;2022-07-21T09:16:01;19.95;;;11.27;;
67274;SDS011;55463;52.324;5.122;2022-07-21T09:18:27;17.98;;;11.05;;
67274;SDS011;55463;52.324;5.122;2022-07-21T09:20:53;14.23;;;9.60;;
67274;SDS011;55463;52.324;5.122;2022-07-21T09:23:19;15.18;;;9.02;;
67274;SDS011;55463;52.324;5.122;2022-07-21T09:25:47;10.15;;;7.28;;
67274;SDS011;55463;52.324;5.122;2022-07-21T09:28:18;8.45;;;6.22;;
67274;SDS011;55463;52.324;5.122;2022-07-21T09:33:35;13.80;;;6.07;;
67274;SDS011;55463;52.324;5.122;2022-07-21T09:38:37;8.82;;;6.25;;
67274;SDS011;55463;52.324;5.122;2022-07-21T09:41:09;9.40;;;5.97;;
67274;SDS011;55463;52.324;5.122;2022-07-21T09:43:36;10.43;;;5.97;;
67274;SDS011;55463;52.324;5.122;2022-07-21T09:46:08;10.77;;;5.20;;
67274;SDS011;55463;52.324;5.122;2022-07-21T09:48:36;8.63;;;4.10;;
67274;SDS011;55463;52.324;5.122;2022-07-21T09:53:57;6.07;;;4.35;;
67274;SDS011;55463;52.324;5.122;2022-07-21T09:56:36;6.95;;;4.95;;
67274;SDS011;55463;52.324;5.122;2022-07-21T09:59:05;5.60;;;5.00;;
67274;SDS011;55463;52.324;5.122;2022-07-21T10:01:32;5.60;;;4.40;;
67274;SDS011;55463;52.324;5.122;2022-07-21T10:03:58;6.82;;;5.18;;
67274;SDS011;55463;52.324;5.122;2022-07-21T10:06:29;10.15;;;5.38;;
67274;SDS011;55463;52.324;5.122;2022-07-21T10:08:56;15.85;;;6.90;;
67274;SDS011;55463;52.324;5.122;2022-07-21T10:11:23;9.68;;;7.03;;
67274;SDS011;55463;52.324;5.122;2022-07-21T10:13:49;11.52;;;7.93;;
67274;SDS011;55463;52.324;5.122;2022-07-21T10:16:15;18.25;;;8.82;;
67274;SDS011;55463;52.324;5.122;2022-07-21T10:18:52;11.65;;;6.93;;
67274;SDS011;55463;52.324;5.122;2022-07-21T10:21:35;13.43;;;7.78;;
67274;SDS011;55463;52.324;5.122;2022-07-21T10:24:03;12.23;;;7.97;;
67274;SDS011;55463;52.324;5.122;2022-07-21T10:26:30;9.95;;;7.90;;
67274;SDS011;55463;52.324;5.122;2022-07-21T10:28:55;12.50;;;8.65;;
67274;SDS011;55463;52.324;5.122;2022-07-21T10:31:22;11.98;;;8.52;;
67274;SDS011;55463;52.324;5.122;2022-07-21T10:39:12;14.35;;;8.80;;
67274;SDS011;55463;52.324;5.122;2022-07-21T10:41:42;13.18;;;9.00;;
67274;SDS011;55463;52.324;5.122;2022-07-21T10:44:43;15.23;;;9.80;;
67274;SDS011;55463;52.324;5.122;2022-07-21T10:47:05;15.85;;;10.18;;
67274;SDS011;55463;52.324;5.122;2022-07-21T10:57:38;16.25;;;9.45;;
67274;SDS011;55463;52.324;5.122;2022-07-21T11:02:46;20.10;;;11.55;;
67274;SDS011;55463;52.324;5.122;2022-07-21T11:05:13;18.90;;;12.35;;
67274;SDS011;55463;52.324;5.122;2022-07-21T11:10:37;13.82;;;9.77;;
67274;SDS011;55463;52.324;5.122;2022-07-21T11:13:04;11.40;;;7.43;;
67274;SDS011;55463;52.324;5.122;2022-07-21T11:18:20;12.00;;;8.50;;
67274;SDS011;55463;52.324;5.122;2022-07-21T11:21:07;14.05;;;8.52;;
67274;SDS011;55463;52.324;5.122;2022-07-21T11:23:49;13.85;;;8.63;;
67274;SDS011;55463;52.324;5.122;2022-07-21T11:26:16;13.20;;;8.13;;
67274;SDS011;55463;52.324;5.122;2022-07-21T11:28:44;12.77;;;8.50;;
67274;SDS011;55463;52.324;5.122;2022-07-21T11:31:18;15.27;;;8.52;;
67274;SDS011;55463;52.324;5.122;2022-07-21T11:33:49;8.73;;;6.97;;
67274;SDS011;55463;52.324;5.122;2022-07-21T11:36:28;8.85;;;5.82;;
67274;SDS011;55463;52.324;5.122;2022-07-21T11:39:08;12.18;;;7.13;;
67274;SDS011;55463;52.324;5.122;2022-07-21T11:41:37;7.45;;;5.50;;
67274;SDS011;55463;52.324;5.122;2022-07-21T11:44:04;6.80;;;5.55;;
67274;SDS011;55463;52.324;5.122;2022-07-21T11:49:16;6.57;;;4.70;;
67274;SDS011;55463;52.324;5.122;2022-07-21T11:51:49;6.13;;;4.03;;
67274;SDS011;55463;52.324;5.122;2022-07-21T11:54:24;8.77;;;3.95;;
67274;SDS011;55463;52.324;5.122;2022-07-21T11:56:51;7.80;;;3.97;;
67274;SDS011;55463;52.324;5.122;2022-07-21T11:59:18;6.75;;;4.10;;
67274;SDS011;55463;52.324;5.122;2022-07-21T12:01:54;6.75;;;3.70;;
67274;SDS011;55463;52.324;5.122;2022-07-21T12:04:26;5.82;;;4.28;;
67274;SDS011;55463;52.324;5.122;2022-07-21T12:07:24;5.15;;;3.88;;
67274;SDS011;55463;52.324;5.122;2022-07-21T12:09:55;10.55;;;4.40;;
67274;SDS011;55463;52.324;5.122;2022-07-21T12:12:29;8.52;;;5.05;;
67274;SDS011;55463;52.324;5.122;2022-07-21T12:15:16;8.57;;;5.50;;
67274;SDS011;55463;52.324;5.122;2022-07-21T12:17:49;7.13;;;5.32;;
67274;SDS011;55463;52.324;5.122;2022-07-21T12:20:28;7.13;;;5.70;;
67274;SDS011;55463;52.324;5.122;2022-07-21T12:23:02;9.47;;;5.50;;
67274;SDS011;55463;52.324;5.122;2022-07-21T12:25:41;6.25;;;4.40;;
67274;SDS011;55463;52.324;5.122;2022-07-21T12:28:07;6.53;;;5.03;;
67274;SDS011;55463;52.324;5.122;2022-07-21T12:30:37;9.15;;;5.18;;
67274;SDS011;55463;52.324;5.122;2022-07-21T12:36:00;5.68;;;4.78;;
67274;SDS011;55463;52.324;5.122;2022-07-21T12:38:40;12.88;;;4.65;;
67274;SDS011;55463;52.324;5.122;2022-07-21T12:41:13;11.77;;;5.20;;
67274;SDS011;55463;52.324;5.122;2022-07-21T12:43:40;8.63;;;5.15;;
67274;SDS011;55463;52.324;5.122;2022-07-21T12:46:13;7.07;;;4.85;;
67274;SDS011;55463;52.324;5.122;2022-07-21T12:48:40;8.75;;;5.80;;
67274;SDS011;55463;52.324;5.122;2022-07-21T12:53:47;9.43;;;5.07;;
67274;SDS011;55463;52.324;5.122;2022-07-21T12:56:15;4.93;;;4.18;;
67274;SDS011;55463;52.324;5.122;2022-07-21T12:58:43;7.15;;;4.43;;
67274;SDS011;55463;52.324;5.122;2022-07-21T13:01:09;6.43;;;4.60;;
67274;SDS011;55463;52.324;5.122;2022-07-21T13:03:35;8.27;;;4.45;;
67274;SDS011;55463;52.324;5.122;2022-07-21T13:06:07;4.85;;;4.15;;
67274;SDS011;55463;52.324;5.122;2022-07-21T13:08:34;5.72;;;4.03;;
67274;SDS011;55463;52.324;5.122;2022-07-21T13:11:00;7.15;;;4.50;;
67274;SDS011;55463;52.324;5.122;2022-07-21T13:13:26;8.45;;;4.10;;
67274;SDS011;55463;52.324;5.122;2022-07-21T13:15:52;5.50;;;3.90;;
67274;SDS011;55463;52.324;5.122;2022-07-21T13:18:30;6.25;;;4.32;;
67274;SDS011;55463;52.324;5.122;2022-07-21T13:20:55;8.73;;;4.80;;
67274;SDS011;55463;52.324;5.122;2022-07-21T13:23:21;6.43;;;4.60;;
67274;SDS011;55463;52.324;5.122;2022-07-21T13:25:47;7.43;;;4.30;;
67274;SDS011;55463;52.324;5.122;2022-07-21T13:28:16;8.18;;;4.65;;
67274;SDS011;55463;52.324;5.122;2022-07-21T13:30:54;7.65;;;5.03;;
67274;SDS011;55463;52.324;5.122;2022-07-21T13:33:19;8.73;;;5.75;;
67274;SDS011;55463;52.324;5.122;2022-07-21T13:35:45;9.23;;;6.60;;
67274;SDS011;55463;52.324;5.122;2022-07-21T13:38:10;7.88;;;5.43;;
67274;SDS011;55463;52.324;5.122;2022-07-21T13:40:36;7.25;;;5.47;;
67274;SDS011;55463;52.324;5.122;2022-07-21T13:43:02;9.40;;;5.43;;
67274;SDS011;55463;52.324;5.122;2022-07-21T13:45:44;7.97;;;5.57;;
67274;SDS011;55463;52.324;5.122;2022-07-21T13:48:09;6.28;;;5.63;;
67274;SDS011;55463;52.324;5.122;2022-07-21T13:50:35;6.00;;;5.40;;
67274;SDS011;55463;52.324;5.122;2022-07-21T13:53:00;6.22;;;5.20;;
67274;SDS011;55463;52.324;5.122;2022-07-21T13:55:26;7.13;;;5.15;;
67274;SDS011;55463;52.324;5.122;2022-07-21T13:57:57;4.45;;;4.05;;
67274;SDS011;55463;52.324;5.122;2022-07-21T14:00:22;4.93;;;4.50;;
67274;SDS011;55463;52.324;5.122;2022-07-21T14:02:48;9.07;;;4.57;;
67274;SDS011;55463;52.324;5.122;2022-07-21T14:05:13;9.30;;;5.88;;
67274;SDS011;55463;52.324;5.122;2022-07-21T14:07:39;5.10;;;4.60;;
67274;SDS011;55463;52.324;5.122;2022-07-21T14:10:38;6.80;;;4.75;;
67274;SDS011;55463;52.324;5.122;2022-07-21T14:12:58;7.63;;;4.80;;
67274;SDS011;55463;52.324;5.122;2022-07-21T14:15:23;6.15;;;4.70;;
67274;SDS011;55463;52.324;5.122;2022-07-21T14:17:49;7.57;;;5.40;;
67274;SDS011;55463;52.324;5.122;2022-07-21T14:20:29;7.63;;;6.20;;
67274;SDS011;55463;52.324;5.122;2022-07-21T14:22:55;8.38;;;5.93;;
67274;SDS011;55463;52.324;5.122;2022-07-21T14:25:21;13.18;;;6.70;;
67274;SDS011;55463;52.324;5.122;2022-07-21T14:27:48;10.20;;;6.55;;
67274;SDS011;55463;52.324;5.122;2022-07-21T14:30:14;8.25;;;6.85;;
67274;SDS011;55463;52.324;5.122;2022-07-21T14:35:25;7.32;;;6.60;;
67274;SDS011;55463;52.324;5.122;2022-07-21T14:37:52;8.05;;;5.82;;
67274;SDS011;55463;52.324;5.122;2022-07-21T14:40:18;8.57;;;3.25;;
67274;SDS011;55463;52.324;5.122;2022-07-21T14:42:44;6.20;;;2.60;;
67274;SDS011;55463;52.324;5.122;2022-07-21T14:45:12;4.72;;;1.70;;
67274;SDS011;55463;52.324;5.122;2022-07-21T14:47:37;5.35;;;2.10;;
67274;SDS011;55463;52.324;5.122;2022-07-21T14:50:02;6.57;;;2.30;;
67274;SDS011;55463;52.324;5.122;2022-07-21T14:52:28;4.07;;;1.88;;
67274;SDS011;55463;52.324;5.122;2022-07-21T14:54:54;6.10;;;1.70;;
67274;SDS011;55463;52.324;5.122;2022-07-21T14:57:19;3.95;;;1.60;;
67274;SDS011;55463;52.324;5.122;2022-07-21T14:59:45;3.83;;;1.73;;
67274;SDS011;55463;52.324;5.122;2022-07-21T15:02:10;4.50;;;1.60;;
67274;SDS011;55463;52.324;5.122;2022-07-21T15:04:36;6.15;;;1.27;;
67274;SDS011;55463;52.324;5.122;2022-07-21T15:07:01;1.38;;;1.27;;
67274;SDS011;55463;52.324;5.122;2022-07-21T15:09:30;2.83;;;1.60;;
67274;SDS011;55463;52.324;5.122;2022-07-21T15:11:56;5.05;;;1.80;;
67274;SDS011;55463;52.324;5.122;2022-07-21T15:14:23;5.90;;;1.67;;
67274;SDS011;55463;52.324;5.122;2022-07-21T15:16:49;4.05;;;1.70;;